Time;durP1;ratioP1;P1;durP2;ratioP2;P2;SDS_P1;SDS_P2;PMS_P1;PMS_P2;Temp;Humidity;BMP_temperature;BMP_pressure;BME280_temperature;BME280_humidity;BME280_pressure;Samples;Min_cycle;Max_cycle;Signal;HPM_P1;HPM_P2
2023/03/31 00:01:26;;;;;;;0.77;0.73;;;18.20;45.90;;;;;;5019062;28;20441;-61
2023/03/31 00:04:03;;;;;;;1.00;0.90;;;18.20;46.00;;;;;;5016476;28;20503;-62
2023/03/31 00:06:36;;;;;;;0.90;0.80;;;18.20;45.90;;;;;;5016208;28;20933;-61
2023/03/31 00:09:04;;;;;;;1.30;0.90;;;18.20;46.00;;;;;;5019507;28;20441;-64
2023/03/31 00:11:30;;;;;;;0.90;0.70;;;18.20;45.90;;;;;;5022414;28;20457;-59
2023/03/31 00:13:55;;;;;;;1.87;0.90;;;18.20;45.90;;;;;;5022806;28;20472;-60
2023/03/31 00:16:21;;;;;;;0.93;0.87;;;18.20;45.90;;;;;;5025548;28;20265;-74
2023/03/31 00:18:49;;;;;;;1.53;1.10;;;18.20;45.90;;;;;;5018947;28;20924;-61
2023/03/31 00:21:23;;;;;;;0.80;0.77;;;18.20;45.90;;;;;;5016930;28;20220;-63
2023/03/31 00:24:10;;;;;;;0.83;0.80;;;18.20;45.90;;;;;;5020769;28;20431;-65
2023/03/31 00:26:36;;;;;;;0.90;0.70;;;18.20;45.90;;;;;;5017347;28;20986;-64
2023/03/31 00:29:04;;;;;;;0.80;0.80;;;18.20;45.90;;;;;;5024010;28;20432;-62
2023/03/31 00:31:29;;;;;;;1.13;0.90;;;18.20;45.90;;;;;;5026172;28;20789;-64
2023/03/31 00:33:55;;;;;;;0.80;0.70;;;18.20;45.90;;;;;;5020243;28;20963;-74
2023/03/31 00:36:26;;;;;;;0.80;0.80;;;18.20;46.00;;;;;;5022847;28;20261;-72
2023/03/31 00:39:01;;;;;;;0.80;0.80;;;18.20;45.90;;;;;;5021664;28;20448;-61
2023/03/31 00:41:28;;;;;;;2.70;0.70;;;18.20;45.80;;;;;;5021723;28;20829;-63
2023/03/31 00:44:13;;;;;;;1.00;0.80;;;18.20;46.00;;;;;;5020701;28;20455;-61
2023/03/31 00:46:55;;;;;;;0.80;0.80;;;18.20;46.00;;;;;;5018091;28;20457;-73
2023/03/31 00:49:32;;;;;;;0.93;0.73;;;18.20;46.00;;;;;;5019330;28;20449;-61
2023/03/31 00:52:09;;;;;;;0.90;0.70;;;18.20;46.00;;;;;;5017163;28;20597;-60
2023/03/31 00:54:36;;;;;;;0.70;0.60;;;18.20;46.00;;;;;;5017899;28;20466;-63
2023/03/31 00:57:05;;;;;;;0.80;0.60;;;18.20;46.70;;;;;;5019156;28;20464;-67
2023/03/31 00:59:41;;;;;;;1.13;1.03;;;18.20;46.00;;;;;;5024751;28;21255;-69
2023/03/31 01:02:08;;;;;;;1.40;1.00;;;18.20;46.00;;;;;;5019483;28;21077;-59
2023/03/31 01:04:38;;;;;;;1.00;0.90;;;18.20;46.00;;;;;;5022243;28;20456;-66
2023/03/31 01:07:29;;;;;;;0.70;0.70;;;18.20;46.00;;;;;;5021804;28;20479;-61
2023/03/31 01:09:58;;;;;;;0.80;0.70;;;18.20;46.00;;;;;;5020135;28;20808;-65
2023/03/31 01:12:26;;;;;;;0.80;0.60;;;18.20;46.00;;;;;;5018063;28;20435;-73
2023/03/31 01:14:53;;;;;;;0.90;0.80;;;18.20;46.00;;;;;;5024263;28;20463;-60
2023/03/31 01:17:21;;;;;;;1.00;0.60;;;18.20;46.10;;;;;;5020543;28;23250;-63
2023/03/31 01:20:15;;;;;;;1.20;0.90;;;18.20;46.40;;;;;;5037126;28;20427;-63
2023/03/31 01:23:04;;;;;;;1.30;0.80;;;18.20;46.00;;;;;;5017817;28;20438;-60
2023/03/31 01:26:00;;;;;;;0.80;0.80;;;18.20;46.10;;;;;;5014548;28;20427;-66
2023/03/31 01:28:38;;;;;;;0.70;0.67;;;18.20;46.10;;;;;;5015267;28;20522;-61
2023/03/31 01:31:12;;;;;;;0.90;0.70;;;18.20;46.10;;;;;;5017204;28;21294;-59
2023/03/31 01:33:59;;;;;;;0.90;0.83;;;18.20;46.00;;;;;;5017886;28;20450;-61
2023/03/31 01:36:57;;;;;;;1.00;0.90;;;18.20;46.00;;;;;;5019583;28;20439;-64
2023/03/31 01:40:00;;;;;;;1.13;0.80;;;18.20;46.00;;;;;;5014260;28;20454;-60
2023/03/31 01:42:29;;;;;;;0.70;0.67;;;18.20;46.10;;;;;;5015887;28;20463;-69
2023/03/31 01:45:11;;;;;;;0.70;0.70;;;18.20;46.10;;;;;;5014789;28;20539;-65
2023/03/31 01:47:44;;;;;;;0.90;0.80;;;18.20;46.10;;;;;;5014948;28;20450;-59
2023/03/31 01:50:22;;;;;;;1.30;0.70;;;18.20;46.10;;;;;;5018220;28;20484;-61
2023/03/31 01:52:56;;;;;;;0.70;0.70;;;18.20;46.10;;;;;;5016401;28;20423;-59
2023/03/31 01:55:28;;;;;;;0.80;0.70;;;18.20;46.10;;;;;;5017228;28;20449;-69
2023/03/31 01:58:02;;;;;;;0.80;0.80;;;18.20;46.10;;;;;;5016729;28;21136;-60
2023/03/31 02:00:32;;;;;;;1.17;0.80;;;18.20;46.10;;;;;;5019984;28;20443;-60
2023/03/31 02:03:28;;;;;;;2.63;0.80;;;18.20;46.10;;;;;;5021020;28;20452;-66
2023/03/31 02:06:01;;;;;;;0.70;0.70;;;18.20;46.10;;;;;;5020937;28;20534;-63
2023/03/31 02:09:02;;;;;;;0.70;0.63;;;18.20;46.10;;;;;;5016937;28;20463;-62
2023/03/31 02:11:30;;;;;;;1.10;0.90;;;18.20;46.10;;;;;;4988735;28;20780;-63
2023/03/31 02:14:00;;;;;;;1.13;0.90;;;18.20;46.10;;;;;;5015375;28;20490;-60
2023/03/31 02:16:29;;;;;;;0.90;0.70;;;18.20;46.10;;;;;;5018509;28;20459;-71
2023/03/31 02:19:02;;;;;;;0.80;0.80;;;18.20;46.10;;;;;;5014427;28;20427;-62
2023/03/31 02:21:32;;;;;;;0.80;0.80;;;18.20;46.20;;;;;;5006597;28;20438;-65
2023/03/31 02:24:03;;;;;;;1.10;0.70;;;18.20;46.10;;;;;;5014489;28;20435;-68
2023/03/31 02:26:33;;;;;;;0.80;0.70;;;18.20;46.80;;;;;;5019765;28;20504;-65
2023/03/31 02:28:59;;;;;;;1.03;0.60;;;18.20;46.10;;;;;;5016895;28;20436;-63
2023/03/31 02:31:41;;;;;;;1.37;0.80;;;18.20;46.10;;;;;;5020332;28;20439;-67
2023/03/31 02:34:07;;;;;;;0.73;0.60;;;18.20;46.10;;;;;;5021975;28;20300;-70
2023/03/31 02:36:34;;;;;;;0.90;0.70;;;18.20;46.10;;;;;;5020476;28;20436;-60
2023/03/31 02:39:07;;;;;;;0.80;0.63;;;18.20;46.10;;;;;;5022603;28;20474;-60
2023/03/31 02:41:33;;;;;;;0.80;0.67;;;18.20;46.10;;;;;;5020133;28;20478;-65
2023/03/31 02:43:58;;;;;;;0.80;0.77;;;18.20;46.20;;;;;;5017643;28;20997;-66
2023/03/31 02:46:25;;;;;;;0.90;0.70;;;18.20;46.10;;;;;;5026650;28;20261;-66
2023/03/31 02:48:54;;;;;;;0.70;0.60;;;18.20;46.20;;;;;;5021692;28;20249;-62
2023/03/31 02:51:58;;;;;;;1.10;0.63;;;18.20;46.10;;;;;;5020777;28;20818;-67
2023/03/31 02:54:48;;;;;;;1.30;0.80;;;18.20;46.10;;;;;;5019323;28;20453;-67
2023/03/31 02:57:13;;;;;;;0.87;0.80;;;18.20;46.10;;;;;;5019825;28;20434;-59
2023/03/31 03:00:09;;;;;;;0.60;0.53;;;18.20;46.20;;;;;;5027849;28;20987;-68
2023/03/31 03:02:45;;;;;;;1.17;0.77;;;18.20;46.20;;;;;;5023473;28;20226;-63
2023/03/31 03:05:27;;;;;;;0.70;0.70;;;18.20;46.20;;;;;;5023888;28;20441;-63
2023/03/31 03:08:13;;;;;;;0.90;0.80;;;18.20;46.20;;;;;;5019873;28;20463;-63
2023/03/31 03:10:53;;;;;;;2.23;0.80;;;18.20;46.20;;;;;;5024977;28;20435;-59
2023/03/31 03:13:28;;;;;;;1.00;0.80;;;18.10;46.10;;;;;;5022171;28;20483;-60
2023/03/31 03:16:02;;;;;;;2.00;0.80;;;18.20;46.20;;;;;;5027101;28;20460;-75
2023/03/31 03:18:28;;;;;;;1.07;0.80;;;18.20;46.20;;;;;;5021734;28;20427;-60
2023/03/31 03:20:53;;;;;;;0.70;0.60;;;18.20;46.20;;;;;;5021465;28;20445;-64
2023/03/31 03:23:19;;;;;;;0.97;0.60;;;18.20;46.20;;;;;;5020319;28;20234;-59
2023/03/31 03:25:45;;;;;;;0.70;0.60;;;18.20;46.20;;;;;;5026519;28;20227;-64
2023/03/31 03:28:11;;;;;;;0.90;0.70;;;18.20;46.20;;;;;;5023799;28;20341;-64
2023/03/31 03:30:37;;;;;;;0.70;0.60;;;18.20;46.20;;;;;;5021480;28;20514;-60
2023/03/31 03:33:05;;;;;;;1.00;0.80;;;18.20;46.20;;;;;;5024142;28;20305;-64
2023/03/31 03:35:31;;;;;;;1.40;0.80;;;18.20;46.20;;;;;;5021167;28;20263;-65
2023/03/31 03:37:56;;;;;;;0.70;0.70;;;18.20;46.20;;;;;;5023549;28;20457;-60
2023/03/31 03:40:22;;;;;;;0.80;0.70;;;18.20;46.20;;;;;;5021908;28;20494;-61
2023/03/31 03:42:47;;;;;;;0.70;0.70;;;18.20;46.20;;;;;;5024148;28;20231;-59
2023/03/31 03:45:13;;;;;;;0.70;0.60;;;18.20;46.20;;;;;;5015226;28;20261;-60
2023/03/31 03:47:38;;;;;;;0.90;0.60;;;18.20;46.20;;;;;;5020277;28;20237;-63
2023/03/31 03:50:04;;;;;;;1.33;0.80;;;18.20;46.20;;;;;;5017053;28;20599;-61
2023/03/31 03:52:30;;;;;;;0.70;0.70;;;18.20;46.20;;;;;;5018634;28;20744;-62
2023/03/31 03:54:55;;;;;;;1.00;0.60;;;18.20;46.20;;;;;;5024706;28;20460;-66
2023/03/31 03:57:21;;;;;;;0.83;0.77;;;18.20;46.20;;;;;;5024056;28;20218;-61
2023/03/31 03:59:47;;;;;;;0.70;0.60;;;18.20;46.30;;;;;;5023500;28;20226;-61
2023/03/31 04:02:12;;;;;;;0.90;0.60;;;18.20;46.20;;;;;;5021876;28;20292;-60
2023/03/31 04:04:38;;;;;;;1.30;0.70;;;18.20;46.20;;;;;;5023514;28;20262;-63
2023/03/31 04:07:04;;;;;;;0.90;0.83;;;18.20;46.20;;;;;;5021382;28;20219;-62
2023/03/31 04:09:30;;;;;;;0.70;0.63;;;18.20;46.20;;;;;;5022836;28;20254;-62
2023/03/31 04:11:55;;;;;;;0.83;0.60;;;18.20;46.10;;;;;;5022368;28;20932;-64
2023/03/31 04:14:21;;;;;;;0.70;0.60;;;18.20;46.10;;;;;;5023372;28;20771;-61
2023/03/31 04:16:47;;;;;;;1.13;0.80;;;18.30;46.10;;;;;;5023216;28;20846;-67
2023/03/31 04:19:16;;;;;;;1.10;0.70;;;18.30;46.00;;;;;;5024837;28;20321;-60
2023/03/31 04:21:44;;;;;;;2.70;1.27;;;18.30;46.00;;;;;;5027526;28;20431;-61
2023/03/31 04:24:14;;;;;;;1.00;0.70;;;18.30;45.90;;;;;;5020751;28;20638;-67
2023/03/31 04:26:43;;;;;;;0.87;0.70;;;18.30;45.90;;;;;;5018849;28;20435;-69
2023/03/31 04:29:18;;;;;;;0.80;0.70;;;18.30;45.90;;;;;;5020229;28;20460;-59
2023/03/31 04:31:44;;;;;;;1.63;0.80;;;18.30;45.90;;;;;;5015793;28;20844;-62
2023/03/31 04:34:12;;;;;;;1.00;0.70;;;18.30;45.90;;;;;;5022606;28;20464;-68
2023/03/31 04:36:45;;;;;;;0.93;0.60;;;18.30;45.90;;;;;;5022050;28;20229;-65
2023/03/31 04:39:15;;;;;;;1.30;1.20;;;18.30;45.90;;;;;;5013575;28;20438;-63
2023/03/31 04:41:41;;;;;;;1.00;0.70;;;18.30;45.90;;;;;;5010609;28;20499;-70
2023/03/31 04:44:06;;;;;;;1.03;0.73;;;18.30;45.90;;;;;;5017742;28;20619;-60
2023/03/31 04:46:34;;;;;;;0.90;0.60;;;18.30;45.90;;;;;;5015987;28;20233;-64
2023/03/31 04:49:00;;;;;;;1.13;0.70;;;18.30;45.90;;;;;;5018148;28;20218;-61
2023/03/31 04:51:26;;;;;;;0.80;0.77;;;18.30;45.90;;;;;;5018181;28;21285;-63
2023/03/31 04:53:51;;;;;;;1.00;0.70;;;18.30;45.90;;;;;;5019383;28;20556;-67
2023/03/31 04:56:17;;;;;;;0.90;0.70;;;18.30;45.90;;;;;;5016460;28;20468;-68
2023/03/31 04:58:43;;;;;;;1.07;0.70;;;18.30;45.90;;;;;;5014495;28;20277;-66
2023/03/31 05:01:12;;;;;;;1.30;0.70;;;18.30;45.90;;;;;;5015587;28;20609;-71
2023/03/31 05:03:38;;;;;;;1.13;0.77;;;18.30;45.90;;;;;;5018984;28;20483;-66
2023/03/31 05:06:04;;;;;;;1.53;0.80;;;18.30;45.90;;;;;;5013535;28;20525;-63
2023/03/31 05:08:30;;;;;;;0.80;0.70;;;18.40;46.00;;;;;;5017035;28;20436;-60
2023/03/31 05:10:56;;;;;;;1.10;0.80;;;18.30;45.90;;;;;;5015683;28;20546;-68
2023/03/31 05:13:22;;;;;;;0.80;0.70;;;18.30;45.90;;;;;;5015140;28;20690;-67
2023/03/31 05:15:49;;;;;;;1.67;0.87;;;18.30;45.90;;;;;;5023113;28;20454;-62
2023/03/31 05:18:15;;;;;;;2.50;0.80;;;18.30;45.90;;;;;;5018159;28;20237;-61
2023/03/31 05:20:41;;;;;;;2.20;0.80;;;18.30;45.90;;;;;;5018118;28;20822;-61
2023/03/31 05:23:06;;;;;;;0.90;0.80;;;18.40;46.00;;;;;;5011650;28;20220;-68
2023/03/31 05:25:32;;;;;;;1.30;0.90;;;18.30;45.90;;;;;;5010735;28;20310;-66
2023/03/31 05:27:59;;;;;;;0.70;0.70;;;18.40;46.00;;;;;;5011487;28;20652;-62
2023/03/31 05:30:25;;;;;;;2.80;0.70;;;18.30;45.90;;;;;;5020250;28;20229;-61
2023/03/31 05:32:51;;;;;;;1.40;0.80;;;18.30;45.90;;;;;;5019362;28;20897;-62
2023/03/31 05:35:17;;;;;;;1.77;0.80;;;18.30;45.90;;;;;;5017158;28;20963;-75
2023/03/31 05:37:42;;;;;;;2.97;1.10;;;18.30;45.90;;;;;;5012761;28;20430;-71
2023/03/31 05:40:09;;;;;;;1.80;0.83;;;18.30;45.90;;;;;;5017793;28;20231;-60
2023/03/31 05:42:35;;;;;;;1.10;0.80;;;18.40;46.00;;;;;;5014796;28;20230;-62
2023/03/31 05:45:01;;;;;;;1.00;0.90;;;18.30;45.90;;;;;;5018083;28;20790;-61
2023/03/31 05:47:26;;;;;;;0.80;0.67;;;18.30;45.90;;;;;;5015584;28;20620;-60
2023/03/31 05:49:52;;;;;;;1.07;0.80;;;18.30;45.90;;;;;;5025212;28;20236;-60
2023/03/31 05:52:18;;;;;;;1.27;1.17;;;18.30;46.00;;;;;;5020502;28;20310;-67
2023/03/31 05:54:43;;;;;;;1.53;0.90;;;18.30;45.90;;;;;;5024249;28;20245;-61
2023/03/31 05:57:09;;;;;;;1.00;0.80;;;18.30;46.00;;;;;;5021637;28;20225;-59
2023/03/31 05:59:35;;;;;;;1.00;0.80;;;18.30;46.00;;;;;;5021591;28;20336;-64
2023/03/31 06:02:01;;;;;;;1.20;0.90;;;18.30;46.00;;;;;;5020174;28;20226;-66
2023/03/31 06:04:27;;;;;;;1.43;0.80;;;18.30;46.00;;;;;;5022548;28;20222;-64
2023/03/31 06:06:52;;;;;;;1.00;0.83;;;18.30;46.00;;;;;;5019505;28;20461;-59
2023/03/31 06:09:18;;;;;;;1.23;0.70;;;18.30;46.00;;;;;;5020338;28;20309;-61
2023/03/31 06:11:44;;;;;;;1.17;1.00;;;18.30;46.00;;;;;;5021612;28;20633;-60
2023/03/31 06:14:10;;;;;;;3.00;0.80;;;18.30;46.00;;;;;;5022511;28;20230;-63
2023/03/31 06:16:36;;;;;;;1.37;1.00;;;18.30;46.00;;;;;;5023311;28;20953;-61
2023/03/31 06:19:02;;;;;;;1.30;0.70;;;18.30;46.00;;;;;;5021791;28;20272;-63
2023/03/31 06:21:27;;;;;;;1.47;0.80;;;18.30;46.00;;;;;;5019562;28;20226;-66
2023/03/31 06:23:54;;;;;;;2.30;0.90;;;18.30;46.00;;;;;;5019034;28;20222;-65
2023/03/31 06:26:21;;;;;;;0.93;0.83;;;18.30;46.00;;;;;;5020708;28;20218;-71
2023/03/31 06:28:47;;;;;;;1.33;0.80;;;18.30;46.00;;;;;;5019551;28;21168;-60
2023/03/31 06:31:19;;;;;;;1.97;0.80;;;18.30;46.00;;;;;;5020780;28;20458;-60
2023/03/31 06:33:45;;;;;;;1.00;0.80;;;18.30;46.00;;;;;;5017736;28;20499;-65
2023/03/31 06:36:13;;;;;;;1.10;0.87;;;18.30;46.00;;;;;;5017380;28;20433;-60
2023/03/31 06:38:39;;;;;;;1.77;0.93;;;18.30;46.80;;;;;;5019745;28;20779;-62
2023/03/31 06:41:06;;;;;;;1.27;0.80;;;18.30;46.00;;;;;;5016426;28;20431;-62
2023/03/31 06:43:31;;;;;;;0.80;0.80;;;18.30;46.00;;;;;;5016077;28;20470;-60
2023/03/31 06:45:57;;;;;;;6.90;0.80;;;18.30;46.00;;;;;;5019564;28;20443;-68
2023/03/31 06:48:24;;;;;;;3.83;0.80;;;18.30;46.00;;;;;;5022508;28;20225;-63
2023/03/31 06:50:50;;;;;;;0.90;0.60;;;18.30;46.00;;;;;;5027730;28;20270;-62
2023/03/31 06:53:16;;;;;;;1.10;0.80;;;18.30;46.00;;;;;;5023207;28;20449;-66
2023/03/31 06:55:41;;;;;;;0.83;0.73;;;18.30;46.00;;;;;;5023217;28;20495;-61
2023/03/31 06:58:07;;;;;;;0.93;0.70;;;18.30;46.00;;;;;;5018495;28;20217;-59
2023/03/31 07:00:33;;;;;;;1.00;0.90;;;18.30;46.00;;;;;;5018075;28;20661;-63
2023/03/31 07:03:00;;;;;;;0.80;0.67;;;18.30;46.80;;;;;;5022709;28;20733;-66
2023/03/31 07:05:26;;;;;;;0.70;0.70;;;18.30;46.00;;;;;;5024715;28;20322;-62
2023/03/31 07:07:55;;;;;;;3.87;0.80;;;18.30;46.00;;;;;;5025326;28;21207;-61
2023/03/31 07:10:22;;;;;;;1.30;1.13;;;18.30;46.00;;;;;;5023843;28;20933;-63
2023/03/31 07:12:48;;;;;;;2.03;0.80;;;18.30;46.00;;;;;;5024383;28;20465;-64
2023/03/31 07:15:14;;;;;;;1.20;1.00;;;18.30;46.00;;;;;;5026173;28;21000;-61
2023/03/31 07:17:40;;;;;;;0.90;0.60;;;18.30;46.00;;;;;;5019213;28;20828;-62
2023/03/31 07:20:16;;;;;;;1.13;0.80;;;18.30;46.00;;;;;;5025908;28;20454;-61
2023/03/31 07:22:43;;;;;;;1.03;0.87;;;18.30;46.00;;;;;;5026691;28;20840;-64
2023/03/31 07:25:10;;;;;;;1.33;1.10;;;18.30;46.00;;;;;;5021796;28;20439;-60
2023/03/31 07:27:36;;;;;;;2.10;0.80;;;18.30;46.00;;;;;;5026743;28;20434;-65
2023/03/31 07:30:04;;;;;;;0.90;0.70;;;18.30;46.00;;;;;;5026383;28;20506;-59
2023/03/31 07:32:30;;;;;;;0.70;0.60;;;18.30;46.00;;;;;;5022573;28;20910;-61
2023/03/31 07:34:55;;;;;;;1.10;0.77;;;18.30;46.00;;;;;;5021435;28;20452;-64
2023/03/31 07:37:21;;;;;;;2.80;0.80;;;18.30;46.00;;;;;;5028000;28;20217;-63
2023/03/31 07:39:46;;;;;;;1.73;0.90;;;18.30;46.00;;;;;;5020369;28;20341;-60
2023/03/31 07:42:12;;;;;;;0.80;0.70;;;18.30;46.00;;;;;;5024324;28;23291;-65
2023/03/31 07:44:37;;;;;;;1.67;0.77;;;18.30;46.00;;;;;;5024016;28;20694;-59
2023/03/31 07:47:05;;;;;;;0.70;0.70;;;18.30;46.00;;;;;;5028148;28;20670;-64
2023/03/31 07:49:31;;;;;;;0.90;0.80;;;18.30;46.80;;;;;;5022335;28;20241;-66
2023/03/31 07:51:57;;;;;;;1.40;0.80;;;18.30;46.00;;;;;;5020931;28;20471;-68
2023/03/31 07:54:23;;;;;;;2.10;0.70;;;18.30;46.00;;;;;;5022556;28;20788;-68
2023/03/31 07:56:49;;;;;;;1.20;0.70;;;18.30;46.00;;;;;;5022031;28;20442;-60
2023/03/31 07:59:15;;;;;;;1.23;1.00;;;18.30;46.00;;;;;;5028343;28;21415;-72
2023/03/31 08:01:40;;;;;;;1.47;0.70;;;18.30;46.00;;;;;;5019664;28;20225;-68
2023/03/31 08:04:06;;;;;;;1.07;0.80;;;18.30;46.10;;;;;;5022097;28;20222;-72
2023/03/31 08:06:31;;;;;;;1.10;0.67;;;18.30;46.10;;;;;;5018773;28;20273;-60
2023/03/31 08:08:57;;;;;;;0.80;0.70;;;18.30;46.00;;;;;;5022943;28;20597;-65
2023/03/31 08:11:23;;;;;;;4.40;1.40;;;18.30;46.00;;;;;;5020762;28;20265;-69
2023/03/31 08:13:49;;;;;;;0.93;0.73;;;18.30;46.00;;;;;;5019947;28;21050;-62
2023/03/31 08:16:15;;;;;;;3.90;1.27;;;18.30;46.10;;;;;;5022606;28;20573;-59
2023/03/31 08:18:41;;;;;;;1.00;0.67;;;18.30;46.00;;;;;;5020632;28;20456;-63
2023/03/31 08:21:08;;;;;;;1.00;0.90;;;18.30;46.00;;;;;;5020237;28;20223;-64
2023/03/31 08:23:34;;;;;;;1.60;0.80;;;18.30;46.00;;;;;;5021216;28;20227;-61
2023/03/31 08:26:17;;;;;;;1.47;0.90;;;18.30;46.50;;;;;;5023923;28;21018;-61
2023/03/31 08:28:43;;;;;;;1.20;0.70;;;18.30;46.00;;;;;;5019374;28;20511;-63
2023/03/31 08:31:09;;;;;;;1.43;0.70;;;18.30;46.00;;;;;;5024622;28;20444;-64
2023/03/31 08:33:36;;;;;;;0.90;0.70;;;18.30;46.10;;;;;;5022329;28;20427;-59
2023/03/31 08:36:03;;;;;;;0.90;0.70;;;18.30;46.10;;;;;;5022503;28;20686;-60
2023/03/31 08:38:30;;;;;;;0.90;0.80;;;18.30;46.10;;;;;;5022583;28;20957;-72
2023/03/31 08:41:02;;;;;;;0.80;0.70;;;18.30;46.10;;;;;;5022465;28;20944;-68
2023/03/31 08:43:42;;;;;;;1.00;0.80;;;18.30;46.10;;;;;;5025164;28;20509;-65
2023/03/31 08:46:14;;;;;;;1.40;0.90;;;18.30;46.00;;;;;;5018880;28;20460;-60
2023/03/31 08:48:54;;;;;;;0.83;0.80;;;18.30;46.10;;;;;;5020337;28;20456;-60
2023/03/31 08:51:55;;;;;;;0.80;0.77;;;18.30;46.10;;;;;;5022142;28;20550;-71
2023/03/31 08:54:32;;;;;;;1.87;0.93;;;18.30;46.10;;;;;;4982617;28;20532;-62
2023/03/31 08:56:59;;;;;;;1.70;0.80;;;18.30;46.10;;;;;;5017394;28;20988;-69
2023/03/31 08:59:33;;;;;;;0.90;0.80;;;18.30;46.10;;;;;;5026699;28;20995;-60
2023/03/31 09:02:18;;;;;;;0.80;0.77;;;18.30;46.10;;;;;;5025135;28;20934;-62
2023/03/31 09:05:21;;;;;;;0.80;0.70;;;18.30;46.10;;;;;;5019243;28;20452;-65
2023/03/31 09:07:59;;;;;;;0.90;0.67;;;18.30;46.10;;;;;;5021872;28;20433;-59
2023/03/31 09:10:52;;;;;;;1.10;0.77;;;18.30;46.10;;;;;;5019764;28;20455;-63
2023/03/31 09:13:47;;;;;;;0.80;0.80;;;18.30;46.10;;;;;;5019633;28;20435;-60
2023/03/31 09:16:23;;;;;;;1.10;0.80;;;18.30;46.10;;;;;;5009459;28;20858;-62
2023/03/31 09:18:51;;;;;;;0.90;0.73;;;18.30;46.10;;;;;;5018418;28;20596;-66
2023/03/31 09:21:21;;;;;;;0.73;0.67;;;18.30;46.20;;;;;;5023250;28;20510;-62
2023/03/31 09:23:58;;;;;;;2.03;0.80;;;18.30;46.10;;;;;;5018296;28;20967;-64
2023/03/31 09:26:51;;;;;;;0.70;0.60;;;18.30;46.10;;;;;;5019244;28;20481;-60
2023/03/31 09:29:23;;;;;;;0.80;0.67;;;18.30;46.10;;;;;;5019326;28;20522;-59
2023/03/31 09:31:49;;;;;;;0.60;0.60;;;18.30;46.10;;;;;;5019385;28;20571;-60
2023/03/31 09:34:28;;;;;;;0.83;0.80;;;18.30;46.90;;;;;;5021559;28;20469;-60
2023/03/31 09:36:53;;;;;;;0.80;0.70;;;18.30;46.10;;;;;;5018452;28;20455;-61
2023/03/31 09:39:19;;;;;;;0.70;0.70;;;18.30;46.10;;;;;;5022038;28;20451;-64
2023/03/31 09:41:48;;;;;;;0.80;0.70;;;18.30;46.10;;;;;;5020772;28;20320;-60
2023/03/31 09:44:44;;;;;;;0.90;0.70;;;18.30;46.10;;;;;;5022470;28;20396;-63
2023/03/31 09:47:15;;;;;;;0.83;0.70;;;18.30;46.10;;;;;;5014383;28;20555;-61
2023/03/31 09:49:45;;;;;;;2.00;0.70;;;18.30;46.10;;;;;;5018262;28;20489;-73
2023/03/31 09:52:28;;;;;;;1.10;0.70;;;18.30;46.10;;;;;;5016478;28;20490;-63
2023/03/31 09:54:57;;;;;;;2.30;0.80;;;18.30;46.10;;;;;;5016807;28;20476;-61
2023/03/31 09:57:27;;;;;;;1.33;0.70;;;18.30;46.10;;;;;;5023173;28;20434;-63
2023/03/31 09:59:53;;;;;;;0.70;0.70;;;18.30;46.10;;;;;;5022293;28;20427;-65
2023/03/31 10:02:33;;;;;;;1.90;0.87;;;18.30;46.10;;;;;;5012738;28;22296;-65
2023/03/31 10:04:59;;;;;;;0.90;0.80;;;18.30;46.10;;;;;;5014544;28;20226;-72
2023/03/31 10:07:25;;;;;;;1.00;0.80;;;18.30;46.10;;;;;;5020754;28;20461;-70
2023/03/31 10:09:53;;;;;;;1.40;0.70;;;18.30;46.00;;;;;;5020216;28;20221;-64
2023/03/31 10:12:23;;;;;;;1.07;0.80;;;18.30;46.00;;;;;;5020429;28;20502;-67
2023/03/31 10:14:51;;;;;;;1.00;0.90;;;18.30;46.10;;;;;;5019633;28;21038;-71
2023/03/31 10:17:22;;;;;;;1.00;0.73;;;18.30;46.10;;;;;;5015508;28;20576;-70
2023/03/31 10:19:48;;;;;;;1.73;0.70;;;18.30;46.10;;;;;;5018297;28;20538;-60
2023/03/31 10:22:25;;;;;;;0.90;0.70;;;18.30;46.10;;;;;;5020644;28;20430;-65
2023/03/31 10:24:51;;;;;;;0.97;0.77;;;18.30;46.10;;;;;;5020603;28;20438;-64
2023/03/31 10:27:27;;;;;;;1.20;0.90;;;18.30;46.00;;;;;;5019314;28;20446;-66
2023/03/31 10:29:58;;;;;;;1.10;0.70;;;18.30;46.00;;;;;;5024152;28;20466;-64
2023/03/31 10:32:32;;;;;;;0.90;0.70;;;18.30;46.00;;;;;;5019824;28;20451;-65
2023/03/31 10:35:21;;;;;;;1.40;0.60;;;18.30;46.00;;;;;;5019293;28;20468;-61
2023/03/31 10:37:48;;;;;;;0.80;0.70;;;18.30;46.00;;;;;;5015103;28;20512;-76
2023/03/31 10:40:19;;;;;;;0.80;0.60;;;18.30;45.90;;;;;;5006027;28;22144;-73
2023/03/31 10:42:49;;;;;;;0.80;0.70;;;18.30;45.90;;;;;;4988455;28;20449;-65
2023/03/31 10:45:26;;;;;;;0.70;0.70;;;18.30;46.00;;;;;;5005608;28;20505;-71
2023/03/31 10:47:54;;;;;;;1.00;0.80;;;18.40;46.10;;;;;;5008179;28;20478;-61
2023/03/31 10:50:26;;;;;;;0.80;0.70;;;18.30;46.00;;;;;;5011688;28;20448;-64
2023/03/31 10:52:59;;;;;;;1.00;0.70;;;18.40;46.10;;;;;;5007124;28;20439;-63
2023/03/31 10:55:33;;;;;;;1.73;0.60;;;18.30;46.00;;;;;;5008963;28;20714;-64
2023/03/31 10:58:11;;;;;;;0.70;0.60;;;18.30;46.00;;;;;;5001428;28;20529;-65
2023/03/31 11:00:51;;;;;;;0.80;0.70;;;18.40;46.10;;;;;;5007730;28;20459;-71
2023/03/31 11:03:44;;;;;;;1.10;0.70;;;18.40;46.10;;;;;;5000074;28;20603;-64
2023/03/31 11:06:19;;;;;;;2.10;0.60;;;18.30;46.10;;;;;;5004477;28;20518;-69
2023/03/31 11:09:21;;;;;;;0.70;0.60;;;18.30;46.00;;;;;;5007281;28;20497;-64
2023/03/31 11:12:04;;;;;;;0.70;0.70;;;18.40;46.10;;;;;;5005918;28;20914;-66
2023/03/31 11:14:47;;;;;;;1.10;0.83;;;18.30;46.00;;;;;;5002759;28;20503;-72
2023/03/31 11:17:25;;;;;;;0.80;0.60;;;18.30;46.00;;;;;;5005313;28;21508;-67
2023/03/31 11:20:24;;;;;;;1.27;1.03;;;18.30;46.10;;;;;;5007357;28;21124;-69
2023/03/31 11:23:17;;;;;;;0.90;0.80;;;18.30;46.00;;;;;;5004527;28;20782;-63
2023/03/31 11:26:10;;;;;;;3.90;0.70;;;18.30;46.00;;;;;;5005213;28;20530;-65
2023/03/31 11:28:41;;;;;;;0.93;0.90;;;18.30;46.10;;;;;;5007038;28;20472;-68
2023/03/31 11:31:36;;;;;;;3.80;0.93;;;18.30;46.00;;;;;;5001352;28;21297;-66
2023/03/31 11:34:34;;;;;;;0.80;0.63;;;18.30;46.10;;;;;;4948310;28;20702;-77
2023/03/31 11:37:12;;;;;;;2.80;0.70;;;18.30;46.10;;;;;;5005439;28;20473;-71
2023/03/31 11:40:01;;;;;;;1.10;0.70;;;18.30;46.00;;;;;;5003654;28;20494;-71
2023/03/31 11:42:35;;;;;;;1.80;0.70;;;18.30;46.10;;;;;;5005410;28;21090;-75
2023/03/31 11:45:13;;;;;;;1.23;0.73;;;18.30;46.10;;;;;;5010860;28;20505;-61
2023/03/31 11:47:43;;;;;;;1.20;0.80;;;18.30;46.00;;;;;;5009870;28;20499;-64
2023/03/31 11:50:17;;;;;;;0.93;0.60;;;18.30;46.10;;;;;;5009690;28;20455;-71
2023/03/31 11:52:50;;;;;;;0.80;0.70;;;18.30;46.10;;;;;;5009637;28;21076;-71
2023/03/31 11:55:20;;;;;;;1.00;0.90;;;18.30;46.10;;;;;;5014892;28;20472;-72
2023/03/31 11:58:24;;;;;;;1.50;0.80;;;18.30;46.00;;;;;;5008901;28;20423;-64
2023/03/31 12:00:56;;;;;;;0.90;0.80;;;18.30;46.10;;;;;;4988696;28;20430;-65
2023/03/31 12:03:45;;;;;;;1.20;1.00;;;18.30;46.10;;;;;;5015929;28;20458;-60
2023/03/31 12:06:17;;;;;;;1.37;1.27;;;18.30;46.10;;;;;;5008652;28;20454;-69
2023/03/31 12:09:00;;;;;;;2.07;1.30;;;18.30;46.10;;;;;;5013260;28;20403;-70
2023/03/31 12:11:36;;;;;;;1.30;1.20;;;18.40;46.20;;;;;;5015501;28;20535;-68
2023/03/31 12:14:39;;;;;;;1.70;1.40;;;18.40;46.10;;;;;;5016030;28;20555;-66
2023/03/31 12:17:13;;;;;;;1.67;1.57;;;18.30;46.10;;;;;;5009177;28;20445;-68
2023/03/31 12:20:09;;;;;;;1.63;1.53;;;18.30;46.10;;;;;;5010824;28;20458;-71
2023/03/31 12:22:40;;;;;;;1.67;1.57;;;18.30;46.10;;;;;;5013996;28;21035;-63
2023/03/31 12:25:15;;;;;;;1.83;1.73;;;18.30;46.10;;;;;;5019953;28;20449;-70
2023/03/31 12:27:49;;;;;;;2.10;1.80;;;18.40;46.20;;;;;;5013379;28;20455;-68
2023/03/31 12:30:19;;;;;;;1.90;1.80;;;18.30;46.10;;;;;;5015561;28;21433;-75
2023/03/31 12:32:52;;;;;;;2.20;2.10;;;18.30;46.10;;;;;;5015570;28;21325;-67
2023/03/31 12:35:26;;;;;;;2.00;1.90;;;18.30;46.10;;;;;;4999426;28;20476;-74
2023/03/31 12:38:24;;;;;;;2.10;2.00;;;18.40;46.20;;;;;;5002170;28;20431;-70
2023/03/31 12:41:16;;;;;;;2.77;2.03;;;18.40;46.20;;;;;;5008939;28;20663;-60
2023/03/31 12:44:00;;;;;;;3.13;2.90;;;18.40;46.20;;;;;;5008917;28;20466;-64
2023/03/31 12:46:42;;;;;;;2.80;2.60;;;18.30;46.10;;;;;;5004571;28;20940;-75
2023/03/31 12:49:29;;;;;;;2.63;2.47;;;18.40;46.20;;;;;;5007929;28;20619;-63
2023/03/31 12:52:19;;;;;;;2.53;2.37;;;18.30;46.10;;;;;;5004506;28;21091;-62
2023/03/31 12:55:27;;;;;;;2.90;2.70;;;18.40;46.20;;;;;;5006677;28;21175;-71
2023/03/31 12:58:25;;;;;;;5.30;2.97;;;18.40;46.20;;;;;;5006055;28;20556;-69
2023/03/31 13:01:04;;;;;;;34.40;5.13;;;18.30;46.10;;;;;;5010096;28;21437;-73
2023/03/31 13:03:33;;;;;;;2.90;2.70;;;18.40;46.20;;;;;;5009072;28;20438;-63
2023/03/31 13:05:59;;;;;;;2.87;2.67;;;18.30;46.10;;;;;;5016164;28;20832;-63
2023/03/31 13:09:12;;;;;;;4.20;2.67;;;18.40;46.20;;;;;;5012836;28;20426;-74
2023/03/31 13:11:46;;;;;;;2.87;2.67;;;18.40;46.10;;;;;;4930799;28;20445;-63
2023/03/31 13:14:20;;;;;;;3.27;2.30;;;18.30;46.00;;;;;;5008534;28;20569;-66
2023/03/31 13:16:47;;;;;;;3.00;2.80;;;18.30;46.00;;;;;;5012688;28;20464;-62